createdAt,value
2023-01-02T00:00:33.528Z,98272.13
2023-01-02T00:03:06.436Z,98260.19
2023-01-02T00:05:37.985Z,98262.66
2023-01-02T00:08:08.667Z,98259.41
2023-01-02T00:10:38.716Z,98263.00
2023-01-02T00:13:08.806Z,98259.56
2023-01-02T00:15:39.280Z,98251.59
2023-01-02T00:18:11.985Z,98251.84
2023-01-02T00:20:44.773Z,98252.28
2023-01-02T00:23:14.879Z,98243.94
2023-01-02T00:25:44.991Z,98240.81
2023-01-02T00:28:14.956Z,98229.25
2023-01-02T00:30:44.935Z,98230.53
2023-01-02T00:33:18.656Z,98229.41
2023-01-02T00:35:48.798Z,98229.03
2023-01-02T00:38:21.266Z,98226.75
2023-01-02T00:40:51.281Z,98228.09
2023-01-02T00:43:21.465Z,98225.47
2023-01-02T00:45:51.558Z,98218.47
2023-01-02T00:48:24.515Z,98216.47
2023-01-02T00:50:54.542Z,98215.56
2023-01-02T00:53:24.583Z,98219.06
2023-01-02T00:55:54.573Z,98215.59
2023-01-02T00:58:24.585Z,98219.31
2023-01-02T01:00:55.134Z,98217.50
2023-01-02T01:03:27.967Z,98217.72
2023-01-02T01:05:58.958Z,98212.13
2023-01-02T01:08:29.072Z,98220.22
2023-01-02T01:11:00.393Z,98213.69
2023-01-02T01:13:30.419Z,98219.97
2023-01-02T01:16:07.513Z,98214.34
2023-01-02T01:18:40.749Z,98218.84
2023-01-02T01:21:12.302Z,98217.03
2023-01-02T01:23:42.659Z,98216.06
2023-01-02T01:26:15.891Z,98212.66
2023-01-02T01:28:45.968Z,98210.28
2023-01-02T01:31:19.233Z,98212.22
2023-01-02T01:33:52.452Z,98210.69
2023-01-02T01:36:25.204Z,98215.03
2023-01-02T01:38:55.210Z,98211.06
2023-01-02T01:41:28.029Z,98219.88
2023-01-02T01:44:00.048Z,98230.66
2023-01-02T01:46:36.306Z,98226.53
2023-01-02T01:49:16.740Z,98231.63
2023-01-02T01:51:54.648Z,98230.84
2023-01-02T01:54:34.027Z,98232.97
2023-01-02T01:57:15.673Z,98234.09
2023-01-02T01:59:46.406Z,98233.91
2023-01-02T02:02:17.582Z,98234.94
2023-01-02T02:04:50.752Z,98238.22
2023-01-02T02:07:21.231Z,98238.06
2023-01-02T02:09:57.820Z,98235.34
2023-01-02T02:12:28.529Z,98232.16
2023-01-02T02:14:58.587Z,98228.78
2023-01-02T02:17:43.099Z,98222.94
2023-01-02T02:20:39.364Z,98234.16
2023-01-02T02:23:55.442Z,98222.31
2023-01-02T02:27:13.706Z,98224.50
2023-01-02T02:30:14.682Z,98221.03
2023-01-02T02:33:17.468Z,98219.09
2023-01-02T02:36:04.234Z,98213.84
2023-01-02T02:38:59.308Z,98213.34
2023-01-02T02:41:38.441Z,98213.34
2023-01-02T02:44:28.742Z,98201.53
2023-01-02T02:47:10.581Z,98204.34
2023-01-02T02:49:55.517Z,98201.47
2023-01-02T02:52:32.637Z,98191.00
2023-01-02T02:55:10.316Z,98189.19
2023-01-02T02:57:44.131Z,98188.63
2023-01-02T03:00:19.972Z,98193.63
2023-01-02T03:02:53.008Z,98195.22
2023-01-02T03:05:35.521Z,98190.59
2023-01-02T03:08:16.766Z,98192.09
2023-01-02T03:10:53.674Z,98183.06
2023-01-02T03:13:41.356Z,98187.59
2023-01-02T03:16:19.530Z,98182.34
2023-01-02T03:18:59.200Z,98183.19
2023-01-02T03:21:38.231Z,98182.41
2023-01-02T03:24:12.411Z,98189.34
2023-01-02T03:26:49.586Z,98189.63
2023-01-02T03:29:24.190Z,98191.38
2023-01-02T03:31:59.094Z,98191.56
2023-01-02T03:34:38.870Z,98190.34
2023-01-02T03:37:15.850Z,98190.09
2023-01-02T03:39:52.482Z,98188.72
2023-01-02T03:42:31.107Z,98185.91
2023-01-02T03:45:07.519Z,98187.25
2023-01-02T03:47:49.000Z,98186.38
2023-01-02T03:50:30.237Z,98185.31
2023-01-02T03:53:01.478Z,98181.53
2023-01-02T03:55:37.759Z,98191.91
2023-01-02T03:58:18.411Z,98187.03
2023-01-02T04:00:58.470Z,98192.34
2023-01-02T04:03:39.255Z,98193.22
2023-01-02T04:06:18.369Z,98192.59
2023-01-02T04:08:55.112Z,98202.47
2023-01-02T04:11:29.227Z,98193.72
2023-01-02T04:14:03.381Z,98194.59
2023-01-02T04:16:38.448Z,98198.00
2023-01-02T04:19:17.346Z,98199.81
2023-01-02T04:21:54.884Z,98206.88
2023-01-02T04:24:33.301Z,98190.28
2023-01-02T04:27:10.597Z,98183.66
2023-01-02T04:29:40.841Z,98180.22
2023-01-02T04:32:21.121Z,98186.06
2023-01-02T04:34:54.882Z,98167.28
2023-01-02T04:37:37.877Z,98167.41
2023-01-02T04:40:16.392Z,98173.59
2023-01-02T04:42:48.259Z,98173.03
2023-01-02T04:45:19.987Z,98171.44
2023-01-02T04:47:51.928Z,98182.19
2023-01-02T04:50:22.423Z,98179.22
2023-01-02T04:52:55.020Z,98177.28
2023-01-02T04:55:25.337Z,98176.94
2023-01-02T04:57:55.337Z,98175.38
2023-01-02T05:00:25.480Z,98178.22
2023-01-02T05:02:55.516Z,98170.44
2023-01-02T05:05:25.714Z,98168.81
2023-01-02T05:07:58.400Z,98173.84
2023-01-02T05:10:29.768Z,98169.47
2023-01-02T05:13:01.667Z,98177.09
2023-01-02T05:15:31.870Z,98179.28
2023-01-02T05:18:01.881Z,98184.22
2023-01-02T05:20:31.934Z,98182.13
2023-01-02T05:23:17.094Z,98184.03
2023-01-02T05:25:47.069Z,98187.53
2023-01-02T05:28:17.031Z,98176.09
2023-01-02T05:30:46.963Z,98184.47
2023-01-02T05:33:16.929Z,98187.75
2023-01-02T05:35:46.895Z,98186.03
2023-01-02T05:38:19.791Z,98196.56
2023-01-02T05:40:49.801Z,98194.50
2023-01-02T05:43:19.790Z,98192.31
2023-01-02T05:45:49.816Z,98186.56
2023-01-02T05:48:19.837Z,98196.72
2023-01-02T05:50:49.871Z,98196.88
2023-01-02T05:53:22.678Z,98192.31
2023-01-02T05:55:52.704Z,98191.66
2023-01-02T05:58:22.781Z,98195.50
2023-01-02T06:00:52.788Z,98189.03
2023-01-02T06:03:22.801Z,98198.84
2023-01-02T06:05:53.999Z,98193.03
2023-01-02T06:08:26.704Z,98198.56
2023-01-02T06:10:56.737Z,98200.94
2023-01-02T06:13:26.768Z,98203.75
2023-01-02T06:15:58.445Z,98203.13
2023-01-02T06:18:29.381Z,98213.72
2023-01-02T06:21:02.343Z,98210.84
2023-01-02T06:23:35.253Z,98204.94
2023-01-02T06:26:07.635Z,98204.28
2023-01-02T06:28:37.882Z,98200.44
2023-01-02T06:31:10.540Z,98215.72
2023-01-02T06:33:41.276Z,98205.72
2023-01-02T06:36:14.496Z,98209.75
2023-01-02T06:38:48.175Z,98217.03
2023-01-02T06:41:19.251Z,98217.06
2023-01-02T06:43:52.434Z,98218.19
2023-01-02T06:46:25.263Z,98219.53
2023-01-02T06:48:55.671Z,98220.34
2023-01-02T06:51:26.821Z,98219.13
2023-01-02T06:53:59.571Z,98225.75
2023-01-02T06:56:29.538Z,98225.44
2023-01-02T06:59:01.039Z,98220.88
2023-01-02T07:01:31.410Z,98230.53
2023-01-02T07:04:01.511Z,98232.44
2023-01-02T07:06:31.488Z,98240.50
2023-01-02T07:09:04.148Z,98245.09
2023-01-02T07:11:35.836Z,98237.97
2023-01-02T07:14:05.811Z,98250.63
2023-01-02T07:16:35.953Z,98250.81
2023-01-02T07:19:06.279Z,98256.78
2023-01-02T07:21:36.242Z,98255.22
2023-01-02T07:24:09.940Z,98267.25
2023-01-02T07:26:40.002Z,98265.81
2023-01-02T07:29:09.955Z,98263.75
2023-01-02T07:31:39.942Z,98254.25
2023-01-02T07:34:09.976Z,98263.59
2023-01-02T07:36:39.977Z,98268.81
2023-01-02T07:39:12.800Z,98283.22
2023-01-02T07:41:43.226Z,98278.81
2023-01-02T07:44:18.023Z,98284.97
2023-01-02T07:46:48.064Z,98296.34
2023-01-02T07:49:18.216Z,98298.56
2023-01-02T07:51:48.208Z,98305.53
2023-01-02T07:54:20.777Z,98293.13
2023-01-02T07:56:50.749Z,98293.75
2023-01-02T07:59:23.124Z,98291.88
2023-01-02T08:01:53.215Z,98295.50
2023-01-02T08:04:23.536Z,98298.47
2023-01-02T08:06:53.503Z,98313.00
2023-01-02T08:09:26.051Z,98302.63
2023-01-02T08:11:56.034Z,98295.28
2023-01-02T08:14:26.130Z,98306.91
2023-01-02T08:16:56.144Z,98305.25
2023-01-02T08:19:26.149Z,98315.53
2023-01-02T08:21:56.109Z,98307.00
2023-01-02T08:24:28.701Z,98310.03
2023-01-02T08:26:58.839Z,98307.47
2023-01-02T08:29:28.787Z,98318.06
2023-01-02T08:32:01.376Z,98322.34
2023-01-02T08:34:31.350Z,98329.53
2023-01-02T08:37:01.297Z,98333.97
2023-01-02T08:39:33.886Z,98325.19
2023-01-02T08:42:04.938Z,98332.00
2023-01-02T08:44:34.984Z,98330.41
2023-01-02T08:47:05.010Z,98347.66
2023-01-02T08:49:35.041Z,98351.16
2023-01-02T08:52:05.027Z,98337.63
2023-01-02T08:54:38.601Z,98342.59
2023-01-02T08:57:08.665Z,98333.78
2023-01-02T08:59:38.644Z,98343.94
2023-01-02T09:02:08.721Z,98342.22
2023-01-02T09:04:38.752Z,98338.94
2023-01-02T09:07:08.678Z,98343.31
2023-01-02T09:09:41.763Z,98349.66
2023-01-02T09:12:11.849Z,98357.97
2023-01-02T09:14:42.729Z,98356.50
2023-01-02T09:17:12.789Z,98361.97
2023-01-02T09:19:42.802Z,98369.69
2023-01-02T09:22:12.980Z,98375.38
2023-01-02T09:24:46.783Z,98380.22
2023-01-02T09:27:16.857Z,98379.22
2023-01-02T09:29:46.818Z,98371.16
2023-01-02T09:32:16.729Z,98367.84
2023-01-02T09:34:50.508Z,98377.06
2023-01-02T09:37:20.817Z,98379.84
2023-01-02T09:39:53.599Z,98380.16
2023-01-02T09:42:23.773Z,98387.09
2023-01-02T09:45:06.421Z,98395.25
2023-01-02T09:47:42.094Z,98389.78
2023-01-02T09:50:19.054Z,98397.84
2023-01-02T09:52:56.190Z,98390.03
2023-01-02T09:55:45.938Z,98393.91
2023-01-02T09:58:34.944Z,98398.69
2023-01-02T10:01:08.075Z,98394.41
2023-01-02T10:03:49.639Z,98387.56
2023-01-02T10:06:25.001Z,98396.38
2023-01-02T10:09:11.366Z,98406.16
2023-01-02T10:12:01.967Z,98408.38
2023-01-02T10:14:51.472Z,98409.06
2023-01-02T10:17:23.035Z,98416.94
2023-01-02T10:20:02.028Z,98419.69
2023-01-02T10:22:39.682Z,98432.22
2023-01-02T10:25:18.846Z,98420.28
2023-01-02T10:28:00.663Z,98423.66
2023-01-02T10:30:38.842Z,98419.72
2023-01-02T10:33:19.380Z,98425.06
2023-01-02T10:35:57.403Z,98417.22
2023-01-02T10:38:34.665Z,98418.00
2023-01-02T10:41:05.473Z,98415.41
2023-01-02T10:43:38.182Z,98412.59
2023-01-02T10:46:08.639Z,98413.25
2023-01-02T10:48:42.391Z,98409.59
2023-01-02T10:51:18.965Z,98419.22
2023-01-02T10:54:03.893Z,98415.63
2023-01-02T10:56:39.184Z,98405.56
2023-01-02T10:59:25.194Z,98401.66
2023-01-02T11:01:57.890Z,98405.59
2023-01-02T11:04:30.200Z,98410.22
2023-01-02T11:07:03.816Z,98417.66
2023-01-02T11:09:36.671Z,98411.91
2023-01-02T11:12:14.523Z,98413.63
2023-01-02T11:14:47.131Z,98405.31
2023-01-02T11:17:22.248Z,98417.50
2023-01-02T11:19:55.019Z,98418.63
2023-01-02T11:22:36.062Z,98418.50
2023-01-02T11:25:10.585Z,98410.91
2023-01-02T11:27:46.936Z,98404.50
2023-01-02T11:30:39.999Z,98411.09
2023-01-02T11:33:21.981Z,98404.94
2023-01-02T11:35:55.503Z,98405.50
2023-01-02T11:38:30.885Z,98411.00
2023-01-02T11:41:04.670Z,98411.59
2023-01-02T11:43:48.746Z,98409.94
2023-01-02T11:46:37.180Z,98403.94
2023-01-02T11:49:15.105Z,98404.78
2023-01-02T11:51:45.338Z,98411.97
2023-01-02T11:54:22.023Z,98423.00
2023-01-02T11:56:54.582Z,98417.91
2023-01-02T11:59:31.433Z,98417.72
2023-01-02T12:02:17.815Z,98420.16
2023-01-02T12:04:47.959Z,98420.16
2023-01-02T12:07:43.852Z,98416.50
2023-01-02T12:10:41.522Z,98410.56
2023-01-02T12:13:35.279Z,98413.03
2023-01-02T12:16:26.258Z,98408.06
2023-01-02T12:19:38.189Z,98414.34
2023-01-02T12:22:40.450Z,98421.84
2023-01-02T12:25:37.837Z,98421.88
2023-01-02T12:28:23.899Z,98423.75
2023-01-02T12:31:17.087Z,98421.97
2023-01-02T12:34:01.232Z,98399.69
2023-01-02T12:37:00.438Z,98402.84
2023-01-02T12:40:18.973Z,98392.66
2023-01-02T12:43:33.797Z,98395.13
2023-01-02T12:46:20.679Z,98391.66
2023-01-02T12:49:21.873Z,98401.28
2023-01-02T12:52:05.550Z,98406.16
2023-01-02T12:54:59.963Z,98389.19
2023-01-02T12:57:43.303Z,98398.28
2023-01-02T13:00:39.439Z,98404.84
2023-01-02T13:03:47.510Z,98411.44
2023-01-02T13:06:45.550Z,98403.91
2023-01-02T13:09:29.512Z,98406.00
2023-01-02T13:12:10.249Z,98412.31
2023-01-02T13:14:45.962Z,98416.94
2023-01-02T13:17:43.171Z,98407.19
2023-01-02T13:20:31.666Z,98414.53
2023-01-02T13:23:25.283Z,98417.75
2023-01-02T13:26:02.840Z,98419.53
2023-01-02T13:28:34.016Z,98424.94
2023-01-02T13:33:58.591Z,98428.06
2023-01-02T13:36:33.232Z,98428.41
2023-01-02T13:39:08.220Z,98428.59
2023-01-02T13:42:07.265Z,98428.03
2023-01-02T13:44:43.644Z,98427.81
2023-01-02T13:47:25.524Z,98418.78
2023-01-02T13:50:09.015Z,98427.28
2023-01-02T13:52:39.181Z,98427.22
2023-01-02T13:55:35.695Z,98437.22
2023-01-02T13:58:42.329Z,98428.28
2023-01-02T14:02:05.459Z,98429.31
2023-01-02T14:04:42.199Z,98435.16
2023-01-02T14:07:49.491Z,98443.66
2023-01-02T14:10:47.099Z,98444.09
2023-01-02T14:13:41.561Z,98447.72
2023-01-02T14:16:48.774Z,98459.22
2023-01-02T14:19:27.254Z,98466.09
2023-01-02T14:22:08.699Z,98473.44
2023-01-02T14:24:44.748Z,98474.56
2023-01-02T14:27:28.862Z,98475.25
2023-01-02T14:30:06.132Z,98481.00
2023-01-02T14:32:43.066Z,98486.00
2023-01-02T14:35:32.872Z,98486.38
2023-01-02T14:38:18.849Z,98488.06
2023-01-02T14:40:50.796Z,98505.66
2023-01-02T14:43:32.403Z,98500.09
2023-01-02T14:46:17.558Z,98502.94
2023-01-02T14:48:58.446Z,98512.50
2023-01-02T14:51:37.064Z,98513.25
2023-01-02T14:54:18.313Z,98510.00
2023-01-02T14:56:54.234Z,98511.44
2023-01-02T14:59:31.351Z,98519.56
2023-01-02T15:02:15.633Z,98524.59
2023-01-02T15:04:52.924Z,98532.00
2023-01-02T15:07:30.279Z,98544.03
2023-01-02T15:10:05.638Z,98546.75
2023-01-02T15:12:58.483Z,98549.03
2023-01-02T15:15:30.986Z,98549.66
2023-01-02T15:18:07.091Z,98556.34
2023-01-02T15:20:37.428Z,98555.56
2023-01-02T15:23:07.869Z,98565.63
2023-01-02T15:25:41.590Z,98571.72
2023-01-02T15:28:28.326Z,98584.38
2023-01-02T15:31:04.028Z,98590.31
2023-01-02T15:33:37.485Z,98600.94
2023-01-02T15:36:13.576Z,98593.09
2023-01-02T15:38:44.241Z,98587.97
2023-01-02T15:41:21.731Z,98595.06
2023-01-02T15:44:10.878Z,98602.16
2023-01-02T15:46:41.637Z,98597.63
2023-01-02T15:49:18.638Z,98608.47
2023-01-02T15:51:48.765Z,98610.44
2023-01-02T15:54:19.744Z,98618.31
2023-01-02T15:56:50.150Z,98623.22
2023-01-02T15:59:37.153Z,98625.41
2023-01-02T16:02:08.506Z,98632.88
2023-01-02T16:04:41.326Z,98637.19
2023-01-02T16:07:29.214Z,98651.72
2023-01-02T16:09:59.831Z,98654.50
2023-01-02T16:12:29.912Z,98643.69
2023-01-02T16:15:02.942Z,98635.59
2023-01-02T16:17:38.446Z,98632.59
2023-01-02T16:20:21.192Z,98656.00
2023-01-02T16:22:57.754Z,98659.91
2023-01-02T16:25:31.880Z,98661.03
2023-01-02T16:28:33.904Z,98663.41
2023-01-02T16:31:12.085Z,98664.34
2023-01-02T16:33:45.774Z,98655.91
2023-01-02T16:36:26.791Z,98647.16
2023-01-02T16:38:59.625Z,98657.78
2023-01-02T16:42:12.587Z,98668.38
2023-01-02T16:44:42.577Z,98667.56
2023-01-02T16:47:13.486Z,98668.38
2023-01-02T16:49:43.470Z,98677.34
2023-01-02T16:52:16.089Z,98687.56
2023-01-02T16:54:49.271Z,98685.53
2023-01-02T16:57:26.699Z,98696.88
2023-01-02T16:59:57.440Z,98704.59
2023-01-02T17:02:27.693Z,98700.22
2023-01-02T17:04:57.827Z,98700.41
2023-01-02T17:07:30.400Z,98711.84
2023-01-02T17:10:00.376Z,98710.34
2023-01-02T17:12:30.331Z,98702.00
2023-01-02T17:15:00.341Z,98711.69
2023-01-02T17:17:30.358Z,98707.72
2023-01-02T17:20:00.577Z,98706.94
2023-01-02T17:22:34.942Z,98721.41
2023-01-02T17:25:05.017Z,98728.22
2023-01-02T17:27:36.175Z,98727.88
2023-01-02T17:30:07.621Z,98731.22
2023-01-02T17:32:37.610Z,98740.56
2023-01-02T17:35:09.771Z,98756.94
2023-01-02T17:37:43.366Z,98762.25
2023-01-02T17:40:15.804Z,98764.91
2023-01-02T17:42:46.500Z,98766.50
2023-01-02T17:45:16.476Z,98766.31
2023-01-02T17:48:01.197Z,98768.19
2023-01-02T17:50:35.128Z,98772.09
2023-01-02T17:53:07.707Z,98771.66
2023-01-02T17:55:38.304Z,98780.25
2023-01-02T17:58:08.276Z,98772.69
2023-01-02T18:00:38.811Z,98771.53
2023-01-02T18:03:08.803Z,98769.56
2023-01-02T18:05:39.614Z,98777.59
2023-01-02T18:08:12.330Z,98778.59
2023-01-02T18:10:42.562Z,98779.28
2023-01-02T18:13:14.465Z,98780.78
2023-01-02T18:15:44.423Z,98783.97
2023-01-02T18:18:19.596Z,98793.09
2023-01-02T18:20:49.766Z,98796.91
2023-01-02T18:23:22.690Z,98800.84
2023-01-02T18:25:54.504Z,98803.84
2023-01-02T18:28:27.130Z,98804.91
2023-01-02T18:31:00.759Z,98806.31
2023-01-02T18:33:32.045Z,98815.28
2023-01-02T18:36:09.387Z,98809.91
2023-01-02T18:38:44.291Z,98813.91
2023-01-02T18:41:21.849Z,98817.94
2023-01-02T18:43:55.932Z,98819.16
2023-01-02T18:47:03.253Z,98820.41
2023-01-02T18:49:35.569Z,98826.59
2023-01-02T18:52:25.739Z,98829.06
2023-01-02T18:55:04.696Z,98840.41
2023-01-02T18:57:38.043Z,98842.44
2023-01-02T19:00:23.712Z,98855.09
2023-01-02T19:02:59.339Z,98851.59
2023-01-02T19:05:33.869Z,98855.69
2023-01-02T19:08:18.487Z,98866.72
2023-01-02T19:10:54.288Z,98861.22
2023-01-02T19:13:26.881Z,98880.09
2023-01-02T19:16:00.713Z,98873.78
2023-01-02T19:18:40.003Z,98879.03
2023-01-02T19:21:20.426Z,98881.91
2023-01-02T19:23:57.073Z,98874.38
2023-01-02T19:26:37.316Z,98885.75
2023-01-02T19:29:20.992Z,98894.97
2023-01-02T19:31:59.630Z,98899.78
2023-01-02T19:34:45.695Z,98907.09
2023-01-02T19:37:39.364Z,98905.50
2023-01-02T19:40:19.486Z,98907.75
2023-01-02T19:42:54.470Z,98905.16
2023-01-02T19:45:27.004Z,98913.59
2023-01-02T19:47:58.098Z,98908.63
2023-01-02T19:50:30.123Z,98911.78
2023-01-02T19:53:00.244Z,98923.88
2023-01-02T19:55:30.269Z,98936.59
2023-01-02T19:58:02.818Z,98934.53
2023-01-02T20:00:33.464Z,98935.41
2023-01-02T20:03:03.591Z,98939.03
2023-01-02T20:05:33.838Z,98941.78
2023-01-02T20:08:03.966Z,98941.75
2023-01-02T20:10:34.080Z,98951.03
2023-01-02T20:13:06.988Z,98950.88
2023-01-02T20:15:37.057Z,98957.41
2023-01-02T20:18:08.925Z,98958.75
2023-01-02T20:20:39.986Z,98959.72
2023-01-02T20:23:09.948Z,98966.06
2023-01-02T20:25:40.190Z,98974.03
2023-01-02T20:28:12.784Z,98977.84
2023-01-02T20:30:42.780Z,98991.06
2023-01-02T20:33:14.427Z,98979.78
2023-01-02T20:35:44.410Z,98988.69
2023-01-02T20:38:14.771Z,98982.34
2023-01-02T20:40:45.019Z,98980.13
2023-01-02T20:43:17.641Z,98985.69
2023-01-02T20:45:47.631Z,98990.47
2023-01-02T20:48:18.044Z,98983.94
2023-01-02T20:50:48.022Z,98995.72
2023-01-02T20:53:18.126Z,98996.00
2023-01-02T20:55:48.296Z,99006.84
2023-01-02T20:58:21.010Z,99002.06
2023-01-02T21:00:51.201Z,99007.34
2023-01-02T21:03:21.332Z,99015.28
2023-01-02T21:05:53.103Z,99018.13
2023-01-02T21:08:23.447Z,99028.97
2023-01-02T21:10:53.458Z,99026.09
2023-01-02T21:13:26.074Z,99026.59
2023-01-02T21:15:57.096Z,99029.75
2023-01-02T21:18:30.423Z,99044.22
2023-01-02T21:21:05.660Z,99047.28
2023-01-02T21:23:38.242Z,99049.00
2023-01-02T21:26:10.209Z,99057.75
2023-01-02T21:28:44.131Z,99066.97
2023-01-02T21:31:14.680Z,99073.81
2023-01-02T21:33:44.768Z,99069.34
2023-01-02T21:36:15.793Z,99072.72
2023-01-02T21:38:46.420Z,99068.41
2023-01-02T21:41:29.133Z,99071.09
2023-01-02T21:44:02.099Z,99066.34
2023-01-02T21:46:32.142Z,99082.06
2023-01-02T21:49:02.510Z,99084.00
2023-01-02T21:51:33.234Z,99079.38
2023-01-02T21:54:03.486Z,99092.44
2023-01-02T21:56:33.468Z,99091.94
2023-01-02T21:59:06.079Z,99088.28
2023-01-02T22:01:36.134Z,99081.28
2023-01-02T22:04:06.746Z,99078.25
2023-01-02T22:06:41.429Z,99072.06
2023-01-02T22:09:20.532Z,99081.13
2023-01-02T22:11:59.492Z,99084.28
2023-01-02T22:14:36.391Z,99088.88
2023-01-02T22:17:09.117Z,99096.19
2023-01-02T22:19:40.151Z,99105.44
2023-01-02T22:22:10.873Z,99122.09
2023-01-02T22:24:44.690Z,99114.19
2023-01-02T22:27:18.739Z,99111.66
2023-01-02T22:32:47.948Z,99117.84
2023-01-02T22:35:18.032Z,99131.00
2023-01-02T22:37:48.029Z,99127.81
2023-01-02T22:40:18.193Z,99133.69
2023-01-02T22:43:01.078Z,99133.66
2023-01-02T22:45:39.590Z,99143.84
2023-01-02T22:48:19.112Z,99147.34
2023-01-02T22:50:50.759Z,99144.50
2023-01-02T22:53:25.482Z,99151.31
2023-01-02T22:55:55.468Z,99154.03
2023-01-02T22:58:26.432Z,99153.03
2023-01-02T23:01:03.220Z,99144.97
2023-01-02T23:03:41.509Z,99140.19
2023-01-02T23:06:14.797Z,99144.09
2023-01-02T23:08:50.023Z,99134.72
2023-01-02T23:11:20.766Z,99122.34
2023-01-02T23:13:56.535Z,99118.53
2023-01-02T23:16:42.286Z,99118.69
2023-01-02T23:19:19.232Z,99114.53
2023-01-02T23:21:52.397Z,99121.19
2023-01-02T23:24:25.815Z,99129.16
2023-01-02T23:26:59.709Z,99137.84
2023-01-02T23:29:31.359Z,99133.84
2023-01-02T23:32:05.467Z,99143.06
2023-01-02T23:34:35.804Z,99141.84
2023-01-02T23:37:06.489Z,99133.06
2023-01-02T23:39:37.687Z,99145.59
2023-01-02T23:42:08.387Z,99150.31
2023-01-02T23:44:38.497Z,99160.28
2023-01-02T23:47:17.116Z,99154.41
2023-01-02T23:49:49.332Z,99147.88
2023-01-02T23:52:20.008Z,99157.84
2023-01-02T23:54:49.978Z,99152.78
2023-01-02T23:57:19.955Z,99157.25
2023-01-02T23:59:50.000Z,99152.31
